ENBN/BNN METAR and TAF weather

Enter ICAO airport designator
Station Type Date Time Source
ENBN METAR 2020/11/25 22:20 UTC NOAA

ENBN 252220Z 33004KT 300V020 9999 -DZ FEW016 BKN022 06/04 Q1001


Station Type Date Time Source
ENBN Decoded METAR 2020/11/25 22:20 UTC NOAA

Bronnoysund / Bronnoy, Norway (ENBN) 65-28N 012-13E 9M
Nov 25, 2020 - 05:20 PM EST / 2020.11.25 2220 UTC
Wind: from the NNW (330 degrees) at 5 MPH (4 KT) (direction variable):0
Visibility: greater than 7 mile(s):0
Sky conditions: mostly cloudy
Weather: light drizzle
Temperature: 42 F (6 C)
Dew Point: 39 F (4 C)
Relative Humidity: 86%
Pressure (altimeter): 29.56 in. Hg (1001 hPa)
ob: ENBN 252220Z 33004KT 300V020 9999 -DZ FEW016 BKN022 06/04 Q1001
cycle: 22

Station Type Date Time Source
ENBN TAF 2011/03/27 18:12 UTC NOAA

TAF TAF ENBN 261700Z 2618/2718 CNL

Example: see airport list